sensor_id;sensor_type;location;lat;lon;timestamp;P1;durP1;ratioP1;P2;durP2;ratioP2
14013;SDS011;49110;52.584;13.408;2023-07-16T00:00:28;3.03;;;2.70;;
14013;SDS011;49110;52.584;13.408;2023-07-16T00:01:28;3.17;;;2.87;;
14013;SDS011;49110;52.584;13.408;2023-07-16T00:02:29;5.07;;;3.10;;
14013;SDS011;49110;52.584;13.408;2023-07-16T00:03:29;3.33;;;2.90;;
14013;SDS011;49110;52.584;13.408;2023-07-16T00:04:30;4.50;;;2.93;;
14013;SDS011;49110;52.584;13.408;2023-07-16T00:05:31;3.17;;;2.73;;
14013;SDS011;49110;52.584;13.408;2023-07-16T00:06:32;3.70;;;2.83;;
14013;SDS011;49110;52.584;13.408;2023-07-16T00:07:32;3.07;;;2.80;;
14013;SDS011;49110;52.584;13.408;2023-07-16T00:08:33;3.10;;;2.70;;
14013;SDS011;49110;52.584;13.408;2023-07-16T00:09:33;4.70;;;3.20;;
14013;SDS011;49110;52.584;13.408;2023-07-16T00:10:37;5.00;;;4.50;;
14013;SDS011;49110;52.584;13.408;2023-07-16T00:11:37;6.13;;;3.70;;
14013;SDS011;49110;52.584;13.408;2023-07-16T00:12:38;4.07;;;3.67;;
14013;SDS011;49110;52.584;13.408;2023-07-16T00:13:38;4.90;;;3.50;;
14013;SDS011;49110;52.584;13.408;2023-07-16T00:14:41;3.37;;;3.07;;
14013;SDS011;49110;52.584;13.408;2023-07-16T00:15:41;3.73;;;2.87;;
14013;SDS011;49110;52.584;13.408;2023-07-16T00:16:42;3.00;;;2.80;;
14013;SDS011;49110;52.584;13.408;2023-07-16T00:17:42;3.33;;;2.90;;
14013;SDS011;49110;52.584;13.408;2023-07-16T00:18:44;2.83;;;2.63;;
14013;SDS011;49110;52.584;13.408;2023-07-16T00:19:45;2.87;;;2.67;;
14013;SDS011;49110;52.584;13.408;2023-07-16T00:20:45;2.87;;;2.67;;
14013;SDS011;49110;52.584;13.408;2023-07-16T00:21:46;2.97;;;2.77;;
14013;SDS011;49110;52.584;13.408;2023-07-16T00:22:46;4.10;;;3.17;;
14013;SDS011;49110;52.584;13.408;2023-07-16T00:23:47;3.20;;;2.90;;
14013;SDS011;49110;52.584;13.408;2023-07-16T00:24:47;5.27;;;2.73;;
14013;SDS011;49110;52.584;13.408;2023-07-16T00:25:48;2.60;;;2.40;;
14013;SDS011;49110;52.584;13.408;2023-07-16T00:26:48;4.00;;;3.00;;
14013;SDS011;49110;52.584;13.408;2023-07-16T00:27:49;3.20;;;2.70;;
14013;SDS011;49110;52.584;13.408;2023-07-16T00:28:49;2.90;;;2.60;;
14013;SDS011;49110;52.584;13.408;2023-07-16T00:29:50;2.93;;;2.60;;
14013;SDS011;49110;52.584;13.408;2023-07-16T00:30:50;2.97;;;2.77;;
14013;SDS011;49110;52.584;13.408;2023-07-16T00:31:50;4.80;;;2.50;;
14013;SDS011;49110;52.584;13.408;2023-07-16T00:32:51;2.97;;;2.60;;
14013;SDS011;49110;52.584;13.408;2023-07-16T00:33:51;3.90;;;2.60;;
14013;SDS011;49110;52.584;13.408;2023-07-16T00:34:52;3.00;;;2.70;;
14013;SDS011;49110;52.584;13.408;2023-07-16T00:35:52;3.10;;;2.80;;
14013;SDS011;49110;52.584;13.408;2023-07-16T00:36:53;3.10;;;2.80;;
14013;SDS011;49110;52.584;13.408;2023-07-16T00:37:53;4.03;;;2.90;;
14013;SDS011;49110;52.584;13.408;2023-07-16T00:38:54;3.77;;;2.70;;
14013;SDS011;49110;52.584;13.408;2023-07-16T00:39:54;3.63;;;3.20;;
14013;SDS011;49110;52.584;13.408;2023-07-16T00:40:55;2.97;;;2.73;;
14013;SDS011;49110;52.584;13.408;2023-07-16T00:41:56;3.10;;;2.73;;
14013;SDS011;49110;52.584;13.408;2023-07-16T00:42:56;3.10;;;2.80;;
14013;SDS011;49110;52.584;13.408;2023-07-16T00:43:57;4.50;;;2.87;;
14013;SDS011;49110;52.584;13.408;2023-07-16T00:44:57;3.27;;;2.87;;
14013;SDS011;49110;52.584;13.408;2023-07-16T00:45:58;3.47;;;2.90;;
14013;SDS011;49110;52.584;13.408;2023-07-16T00:46:58;3.03;;;2.73;;
14013;SDS011;49110;52.584;13.408;2023-07-16T00:47:59;3.63;;;3.10;;
14013;SDS011;49110;52.584;13.408;2023-07-16T00:48:59;3.80;;;2.80;;
14013;SDS011;49110;52.584;13.408;2023-07-16T00:50:01;4.67;;;3.20;;
14013;SDS011;49110;52.584;13.408;2023-07-16T00:51:01;3.87;;;2.60;;
14013;SDS011;49110;52.584;13.408;2023-07-16T00:52:04;11.90;;;3.07;;
14013;SDS011;49110;52.584;13.408;2023-07-16T00:53:08;4.70;;;3.10;;
14013;SDS011;49110;52.584;13.408;2023-07-16T00:54:09;6.37;;;3.13;;
14013;SDS011;49110;52.584;13.408;2023-07-16T00:55:09;4.40;;;2.90;;
14013;SDS011;49110;52.584;13.408;2023-07-16T00:56:10;3.27;;;2.97;;
14013;SDS011;49110;52.584;13.408;2023-07-16T00:57:13;3.07;;;2.77;;
14013;SDS011;49110;52.584;13.408;2023-07-16T00:58:14;3.50;;;3.20;;
14013;SDS011;49110;52.584;13.408;2023-07-16T00:59:14;3.40;;;3.07;;
14013;SDS011;49110;52.584;13.408;2023-07-16T01:00:15;7.97;;;3.30;;
14013;SDS011;49110;52.584;13.408;2023-07-16T01:01:16;3.20;;;3.00;;
14013;SDS011;49110;52.584;13.408;2023-07-16T01:02:17;5.57;;;3.03;;
14013;SDS011;49110;52.584;13.408;2023-07-16T01:03:17;4.27;;;3.17;;
14013;SDS011;49110;52.584;13.408;2023-07-16T01:04:18;3.47;;;3.17;;
14013;SDS011;49110;52.584;13.408;2023-07-16T01:05:18;3.00;;;2.80;;
14013;SDS011;49110;52.584;13.408;2023-07-16T01:07:38;3.63;;;3.00;;
14013;SDS011;49110;52.584;13.408;2023-07-16T01:08:47;3.90;;;2.80;;
14013;SDS011;49110;52.584;13.408;2023-07-16T01:09:55;3.13;;;2.83;;
14013;SDS011;49110;52.584;13.408;2023-07-16T01:10:56;6.60;;;2.57;;
14013;SDS011;49110;52.584;13.408;2023-07-16T01:11:57;3.07;;;2.77;;
14013;SDS011;49110;52.584;13.408;2023-07-16T01:13:00;5.33;;;3.10;;
14013;SDS011;49110;52.584;13.408;2023-07-16T01:14:01;3.17;;;2.87;;
14013;SDS011;49110;52.584;13.408;2023-07-16T01:15:03;2.87;;;2.60;;
14013;SDS011;49110;52.584;13.408;2023-07-16T01:16:04;3.90;;;3.00;;
14013;SDS011;49110;52.584;13.408;2023-07-16T01:17:05;6.40;;;2.80;;
14013;SDS011;49110;52.584;13.408;2023-07-16T01:18:06;3.20;;;2.70;;
14013;SDS011;49110;52.584;13.408;2023-07-16T01:19:07;4.80;;;2.87;;
14013;SDS011;49110;52.584;13.408;2023-07-16T01:20:07;3.77;;;2.70;;
14013;SDS011;49110;52.584;13.408;2023-07-16T01:21:08;2.70;;;2.50;;
14013;SDS011;49110;52.584;13.408;2023-07-16T01:23:44;3.10;;;2.80;;
14013;SDS011;49110;52.584;13.408;2023-07-16T01:25:10;3.87;;;2.60;;
14013;SDS011;49110;52.584;13.408;2023-07-16T01:26:23;3.33;;;2.30;;
14013;SDS011;49110;52.584;13.408;2023-07-16T01:30:33;4.17;;;2.63;;
14013;SDS011;49110;52.584;13.408;2023-07-16T01:31:37;5.20;;;2.87;;
14013;SDS011;49110;52.584;13.408;2023-07-16T01:32:40;3.07;;;2.80;;
14013;SDS011;49110;52.584;13.408;2023-07-16T01:33:41;3.40;;;2.77;;
14013;SDS011;49110;52.584;13.408;2023-07-16T01:34:42;2.73;;;2.53;;
14013;SDS011;49110;52.584;13.408;2023-07-16T01:35:44;4.37;;;3.03;;
14013;SDS011;49110;52.584;13.408;2023-07-16T01:36:46;3.17;;;2.70;;
14013;SDS011;49110;52.584;13.408;2023-07-16T01:37:47;3.30;;;2.70;;
14013;SDS011;49110;52.584;13.408;2023-07-16T01:38:48;2.80;;;2.60;;
14013;SDS011;49110;52.584;13.408;2023-07-16T01:39:48;3.83;;;3.13;;
14013;SDS011;49110;52.584;13.408;2023-07-16T01:40:49;3.13;;;2.80;;
14013;SDS011;49110;52.584;13.408;2023-07-16T01:41:49;2.87;;;2.57;;
14013;SDS011;49110;52.584;13.408;2023-07-16T01:42:50;2.87;;;2.67;;
14013;SDS011;49110;52.584;13.408;2023-07-16T01:43:50;4.07;;;3.10;;
14013;SDS011;49110;52.584;13.408;2023-07-16T01:44:51;3.07;;;2.77;;
14013;SDS011;49110;52.584;13.408;2023-07-16T01:45:51;3.03;;;2.83;;
14013;SDS011;49110;52.584;13.408;2023-07-16T01:47:04;9.93;;;3.13;;
14013;SDS011;49110;52.584;13.408;2023-07-16T01:49:36;3.23;;;3.00;;
14013;SDS011;49110;52.584;13.408;2023-07-16T01:50:37;3.90;;;2.93;;
14013;SDS011;49110;52.584;13.408;2023-07-16T01:51:38;2.97;;;2.77;;
14013;SDS011;49110;52.584;13.408;2023-07-16T01:52:39;2.80;;;2.60;;
14013;SDS011;49110;52.584;13.408;2023-07-16T01:53:42;3.20;;;2.87;;
14013;SDS011;49110;52.584;13.408;2023-07-16T01:54:42;3.13;;;2.93;;
14013;SDS011;49110;52.584;13.408;2023-07-16T01:55:43;3.23;;;2.97;;
14013;SDS011;49110;52.584;13.408;2023-07-16T01:56:43;3.27;;;2.97;;
14013;SDS011;49110;52.584;13.408;2023-07-16T01:57:44;3.37;;;2.80;;
14013;SDS011;49110;52.584;13.408;2023-07-16T01:58:44;9.67;;;2.97;;
14013;SDS011;49110;52.584;13.408;2023-07-16T01:59:44;2.87;;;2.60;;
14013;SDS011;49110;52.584;13.408;2023-07-16T02:00:46;3.33;;;3.00;;
14013;SDS011;49110;52.584;13.408;2023-07-16T02:01:48;3.70;;;2.90;;
14013;SDS011;49110;52.584;13.408;2023-07-16T02:02:48;2.87;;;2.67;;
14013;SDS011;49110;52.584;13.408;2023-07-16T02:03:49;3.47;;;2.80;;
14013;SDS011;49110;52.584;13.408;2023-07-16T02:04:49;3.73;;;2.60;;
14013;SDS011;49110;52.584;13.408;2023-07-16T02:05:50;3.10;;;2.60;;
14013;SDS011;49110;52.584;13.408;2023-07-16T02:06:50;4.10;;;2.83;;
14013;SDS011;49110;52.584;13.408;2023-07-16T02:07:50;3.80;;;2.97;;
14013;SDS011;49110;52.584;13.408;2023-07-16T02:08:51;3.17;;;2.87;;
14013;SDS011;49110;52.584;13.408;2023-07-16T02:09:51;3.40;;;2.80;;
14013;SDS011;49110;52.584;13.408;2023-07-16T02:10:52;3.23;;;2.67;;
14013;SDS011;49110;52.584;13.408;2023-07-16T02:11:52;3.10;;;2.60;;
14013;SDS011;49110;52.584;13.408;2023-07-16T02:12:53;2.90;;;2.70;;
14013;SDS011;49110;52.584;13.408;2023-07-16T02:13:53;2.77;;;2.57;;
14013;SDS011;49110;52.584;13.408;2023-07-16T02:14:54;3.10;;;2.80;;
14013;SDS011;49110;52.584;13.408;2023-07-16T02:15:54;4.77;;;2.77;;
14013;SDS011;49110;52.584;13.408;2023-07-16T02:16:55;2.97;;;2.60;;
14013;SDS011;49110;52.584;13.408;2023-07-16T02:17:55;2.97;;;2.60;;
14013;SDS011;49110;52.584;13.408;2023-07-16T02:18:56;3.20;;;2.70;;
14013;SDS011;49110;52.584;13.408;2023-07-16T02:19:56;2.90;;;2.60;;
14013;SDS011;49110;52.584;13.408;2023-07-16T02:20:57;4.00;;;2.80;;
14013;SDS011;49110;52.584;13.408;2023-07-16T02:21:57;2.60;;;2.40;;
14013;SDS011;49110;52.584;13.408;2023-07-16T02:22:58;3.60;;;2.60;;
14013;SDS011;49110;52.584;13.408;2023-07-16T02:23:58;2.67;;;2.47;;
14013;SDS011;49110;52.584;13.408;2023-07-16T02:24:59;2.87;;;2.63;;
14013;SDS011;49110;52.584;13.408;2023-07-16T02:26:00;2.70;;;2.50;;
14013;SDS011;49110;52.584;13.408;2023-07-16T02:27:01;4.30;;;2.90;;
14013;SDS011;49110;52.584;13.408;2023-07-16T02:28:02;3.10;;;2.80;;
14013;SDS011;49110;52.584;13.408;2023-07-16T02:29:02;2.90;;;2.60;;
14013;SDS011;49110;52.584;13.408;2023-07-16T02:30:03;2.60;;;2.40;;
14013;SDS011;49110;52.584;13.408;2023-07-16T02:31:04;2.70;;;2.50;;
14013;SDS011;49110;52.584;13.408;2023-07-16T02:32:05;2.93;;;2.73;;
14013;SDS011;49110;52.584;13.408;2023-07-16T02:33:06;3.20;;;2.53;;
14013;SDS011;49110;52.584;13.408;2023-07-16T02:34:06;4.93;;;2.50;;
14013;SDS011;49110;52.584;13.408;2023-07-16T02:35:07;2.87;;;2.50;;
14013;SDS011;49110;52.584;13.408;2023-07-16T02:36:07;3.20;;;2.83;;
14013;SDS011;49110;52.584;13.408;2023-07-16T02:37:08;5.27;;;2.47;;
14013;SDS011;49110;52.584;13.408;2023-07-16T02:38:08;3.63;;;2.80;;
14013;SDS011;49110;52.584;13.408;2023-07-16T02:39:09;2.90;;;2.60;;
14013;SDS011;49110;52.584;13.408;2023-07-16T02:40:09;3.40;;;2.73;;
14013;SDS011;49110;52.584;13.408;2023-07-16T02:41:10;3.03;;;2.73;;
14013;SDS011;49110;52.584;13.408;2023-07-16T02:42:10;3.83;;;2.73;;
14013;SDS011;49110;52.584;13.408;2023-07-16T02:43:11;3.23;;;2.73;;
14013;SDS011;49110;52.584;13.408;2023-07-16T02:44:11;3.03;;;2.73;;
14013;SDS011;49110;52.584;13.408;2023-07-16T02:45:12;2.93;;;2.40;;
14013;SDS011;49110;52.584;13.408;2023-07-16T02:46:12;3.40;;;2.70;;
14013;SDS011;49110;52.584;13.408;2023-07-16T02:47:13;2.80;;;2.60;;
14013;SDS011;49110;52.584;13.408;2023-07-16T02:48:13;2.60;;;2.40;;
14013;SDS011;49110;52.584;13.408;2023-07-16T02:49:14;2.90;;;2.37;;
14013;SDS011;49110;52.584;13.408;2023-07-16T02:50:14;3.13;;;2.77;;
14013;SDS011;49110;52.584;13.408;2023-07-16T02:51:15;3.40;;;3.07;;
14013;SDS011;49110;52.584;13.408;2023-07-16T02:52:15;2.73;;;2.50;;
14013;SDS011;49110;52.584;13.408;2023-07-16T02:53:15;3.40;;;2.60;;
14013;SDS011;49110;52.584;13.408;2023-07-16T02:54:16;3.43;;;2.50;;
14013;SDS011;49110;52.584;13.408;2023-07-16T02:55:16;2.93;;;2.73;;
14013;SDS011;49110;52.584;13.408;2023-07-16T02:56:17;2.77;;;2.50;;
14013;SDS011;49110;52.584;13.408;2023-07-16T02:57:17;2.90;;;2.60;;
14013;SDS011;49110;52.584;13.408;2023-07-16T02:58:18;3.27;;;2.80;;
14013;SDS011;49110;52.584;13.408;2023-07-16T02:59:18;3.93;;;3.10;;
14013;SDS011;49110;52.584;13.408;2023-07-16T03:00:19;3.33;;;3.00;;
14013;SDS011;49110;52.584;13.408;2023-07-16T03:01:19;2.87;;;2.67;;
14013;SDS011;49110;52.584;13.408;2023-07-16T03:02:20;2.77;;;2.57;;
14013;SDS011;49110;52.584;13.408;2023-07-16T03:03:20;3.60;;;3.03;;
14013;SDS011;49110;52.584;13.408;2023-07-16T03:04:21;2.97;;;2.47;;
14013;SDS011;49110;52.584;13.408;2023-07-16T03:05:21;2.77;;;2.57;;
14013;SDS011;49110;52.584;13.408;2023-07-16T03:06:22;3.13;;;2.93;;
14013;SDS011;49110;52.584;13.408;2023-07-16T03:07:22;3.10;;;2.67;;
14013;SDS011;49110;52.584;13.408;2023-07-16T03:08:23;3.20;;;2.87;;
14013;SDS011;49110;52.584;13.408;2023-07-16T03:09:26;3.53;;;2.80;;
14013;SDS011;49110;52.584;13.408;2023-07-16T03:10:26;6.23;;;2.90;;
14013;SDS011;49110;52.584;13.408;2023-07-16T03:11:27;4.23;;;3.20;;
14013;SDS011;49110;52.584;13.408;2023-07-16T03:12:27;3.13;;;2.93;;
14013;SDS011;49110;52.584;13.408;2023-07-16T03:13:28;4.13;;;3.00;;
14013;SDS011;49110;52.584;13.408;2023-07-16T03:14:28;3.47;;;3.13;;
14013;SDS011;49110;52.584;13.408;2023-07-16T03:15:29;3.53;;;3.17;;
14013;SDS011;49110;52.584;13.408;2023-07-16T03:16:29;3.47;;;3.17;;
14013;SDS011;49110;52.584;13.408;2023-07-16T03:17:30;3.50;;;3.20;;
14013;SDS011;49110;52.584;13.408;2023-07-16T03:18:30;3.77;;;3.47;;
14013;SDS011;49110;52.584;13.408;2023-07-16T03:19:32;3.40;;;3.10;;
14013;SDS011;49110;52.584;13.408;2023-07-16T03:20:33;11.57;;;3.40;;
14013;SDS011;49110;52.584;13.408;2023-07-16T03:21:33;3.50;;;3.20;;
14013;SDS011;49110;52.584;13.408;2023-07-16T03:22:34;3.50;;;3.20;;
14013;SDS011;49110;52.584;13.408;2023-07-16T03:23:34;3.60;;;3.20;;
14013;SDS011;49110;52.584;13.408;2023-07-16T03:24:34;3.43;;;3.00;;
14013;SDS011;49110;52.584;13.408;2023-07-16T03:25:35;3.10;;;2.80;;
14013;SDS011;49110;52.584;13.408;2023-07-16T03:26:35;4.50;;;2.80;;
14013;SDS011;49110;52.584;13.408;2023-07-16T03:27:36;2.73;;;2.53;;
14013;SDS011;49110;52.584;13.408;2023-07-16T03:28:36;3.47;;;3.17;;
14013;SDS011;49110;52.584;13.408;2023-07-16T03:29:37;3.83;;;3.10;;
14013;SDS011;49110;52.584;13.408;2023-07-16T03:30:37;5.80;;;3.40;;
14013;SDS011;49110;52.584;13.408;2023-07-16T03:31:38;4.07;;;3.47;;
14013;SDS011;49110;52.584;13.408;2023-07-16T03:32:38;5.47;;;3.23;;
14013;SDS011;49110;52.584;13.408;2023-07-16T03:33:39;4.07;;;3.20;;
14013;SDS011;49110;52.584;13.408;2023-07-16T03:34:39;2.90;;;2.70;;
14013;SDS011;49110;52.584;13.408;2023-07-16T03:35:42;5.33;;;2.70;;
14013;SDS011;49110;52.584;13.408;2023-07-16T03:36:43;3.33;;;3.00;;
14013;SDS011;49110;52.584;13.408;2023-07-16T03:37:44;3.33;;;3.00;;
14013;SDS011;49110;52.584;13.408;2023-07-16T03:38:44;3.43;;;3.13;;
14013;SDS011;49110;52.584;13.408;2023-07-16T03:39:45;3.17;;;2.90;;
14013;SDS011;49110;52.584;13.408;2023-07-16T03:40:47;3.33;;;2.70;;
14013;SDS011;49110;52.584;13.408;2023-07-16T03:41:48;3.00;;;2.80;;
14013;SDS011;49110;52.584;13.408;2023-07-16T03:42:48;3.23;;;2.70;;
14013;SDS011;49110;52.584;13.408;2023-07-16T03:43:49;3.23;;;2.93;;
14013;SDS011;49110;52.584;13.408;2023-07-16T03:44:49;3.20;;;2.90;;
14013;SDS011;49110;52.584;13.408;2023-07-16T03:45:50;3.30;;;3.00;;
14013;SDS011;49110;52.584;13.408;2023-07-16T03:46:50;3.40;;;3.10;;
14013;SDS011;49110;52.584;13.408;2023-07-16T03:47:51;3.10;;;2.80;;
14013;SDS011;49110;52.584;13.408;2023-07-16T03:48:52;3.23;;;3.03;;
14013;SDS011;49110;52.584;13.408;2023-07-16T03:49:53;3.73;;;3.03;;
14013;SDS011;49110;52.584;13.408;2023-07-16T03:50:54;3.10;;;2.80;;
14013;SDS011;49110;52.584;13.408;2023-07-16T03:51:54;3.57;;;2.80;;
14013;SDS011;49110;52.584;13.408;2023-07-16T03:52:55;3.43;;;3.13;;
14013;SDS011;49110;52.584;13.408;2023-07-16T03:53:55;2.70;;;2.50;;
14013;SDS011;49110;52.584;13.408;2023-07-16T03:54:56;3.30;;;3.03;;
14013;SDS011;49110;52.584;13.408;2023-07-16T03:55:56;2.93;;;2.73;;
14013;SDS011;49110;52.584;13.408;2023-07-16T03:56:57;3.10;;;2.80;;
14013;SDS011;49110;52.584;13.408;2023-07-16T03:57:57;3.93;;;3.00;;
14013;SDS011;49110;52.584;13.408;2023-07-16T03:58:58;3.70;;;3.17;;
14013;SDS011;49110;52.584;13.408;2023-07-16T03:59:58;3.90;;;3.40;;
14013;SDS011;49110;52.584;13.408;2023-07-16T04:00:59;5.23;;;3.20;;
14013;SDS011;49110;52.584;13.408;2023-07-16T04:01:59;5.90;;;3.07;;
14013;SDS011;49110;52.584;13.408;2023-07-16T04:03:00;3.40;;;2.83;;
14013;SDS011;49110;52.584;13.408;2023-07-16T04:04:00;3.00;;;2.80;;
14013;SDS011;49110;52.584;13.408;2023-07-16T04:05:01;3.27;;;2.90;;
14013;SDS011;49110;52.584;13.408;2023-07-16T04:06:02;4.40;;;3.00;;
14013;SDS011;49110;52.584;13.408;2023-07-16T04:07:06;3.37;;;3.13;;
14013;SDS011;49110;52.584;13.408;2023-07-16T04:08:07;3.20;;;3.00;;
14013;SDS011;49110;52.584;13.408;2023-07-16T04:09:08;4.17;;;2.97;;
14013;SDS011;49110;52.584;13.408;2023-07-16T04:10:08;3.87;;;2.80;;
14013;SDS011;49110;52.584;13.408;2023-07-16T04:11:09;3.00;;;2.70;;
14013;SDS011;49110;52.584;13.408;2023-07-16T04:12:09;3.27;;;3.00;;
14013;SDS011;49110;52.584;13.408;2023-07-16T04:13:10;3.33;;;3.07;;
14013;SDS011;49110;52.584;13.408;2023-07-16T04:14:10;3.03;;;2.83;;
14013;SDS011;49110;52.584;13.408;2023-07-16T04:15:11;3.13;;;2.90;;
14013;SDS011;49110;52.584;13.408;2023-07-16T04:16:11;3.90;;;2.80;;
14013;SDS011;49110;52.584;13.408;2023-07-16T04:17:12;3.87;;;2.80;;
14013;SDS011;49110;52.584;13.408;2023-07-16T04:18:12;3.00;;;2.80;;
14013;SDS011;49110;52.584;13.408;2023-07-16T04:19:13;2.70;;;2.50;;
14013;SDS011;49110;52.584;13.408;2023-07-16T04:20:13;3.10;;;2.80;;
14013;SDS011;49110;52.584;13.408;2023-07-16T04:21:14;3.20;;;2.63;;
14013;SDS011;49110;52.584;13.408;2023-07-16T04:22:14;2.50;;;2.30;;
14013;SDS011;49110;52.584;13.408;2023-07-16T04:23:15;3.40;;;3.10;;
14013;SDS011;49110;52.584;13.408;2023-07-16T04:24:15;3.10;;;2.70;;
14013;SDS011;49110;52.584;13.408;2023-07-16T04:25:15;3.13;;;2.50;;
14013;SDS011;49110;52.584;13.408;2023-07-16T04:26:16;2.80;;;2.60;;
14013;SDS011;49110;52.584;13.408;2023-07-16T04:27:17;3.27;;;2.67;;
14013;SDS011;49110;52.584;13.408;2023-07-16T04:28:17;6.00;;;2.73;;
14013;SDS011;49110;52.584;13.408;2023-07-16T04:29:17;2.90;;;2.43;;
14013;SDS011;49110;52.584;13.408;2023-07-16T04:30:18;3.20;;;2.30;;
14013;SDS011;49110;52.584;13.408;2023-07-16T04:31:18;2.53;;;2.13;;
14013;SDS011;49110;52.584;13.408;2023-07-16T04:32:19;3.00;;;2.60;;
14013;SDS011;49110;52.584;13.408;2023-07-16T04:33:19;2.60;;;2.40;;
14013;SDS011;49110;52.584;13.408;2023-07-16T04:34:20;2.43;;;2.27;;
14013;SDS011;49110;52.584;13.408;2023-07-16T04:35:20;3.73;;;2.70;;
14013;SDS011;49110;52.584;13.408;2023-07-16T04:36:21;2.40;;;2.20;;
14013;SDS011;49110;52.584;13.408;2023-07-16T04:37:21;3.07;;;2.20;;
14013;SDS011;49110;52.584;13.408;2023-07-16T04:38:22;3.30;;;2.33;;
14013;SDS011;49110;52.584;13.408;2023-07-16T04:39:22;3.87;;;2.40;;
14013;SDS011;49110;52.584;13.408;2023-07-16T04:40:23;3.63;;;2.33;;
14013;SDS011;49110;52.584;13.408;2023-07-16T04:41:23;2.47;;;2.27;;
14013;SDS011;49110;52.584;13.408;2023-07-16T04:42:24;2.40;;;2.20;;
14013;SDS011;49110;52.584;13.408;2023-07-16T04:43:24;3.70;;;2.40;;
14013;SDS011;49110;52.584;13.408;2023-07-16T04:44:25;2.43;;;2.23;;
14013;SDS011;49110;52.584;13.408;2023-07-16T04:45:25;2.27;;;2.07;;
14013;SDS011;49110;52.584;13.408;2023-07-16T04:46:25;3.10;;;2.30;;
14013;SDS011;49110;52.584;13.408;2023-07-16T04:47:26;2.57;;;2.30;;
14013;SDS011;49110;52.584;13.408;2023-07-16T04:48:26;2.53;;;2.33;;
14013;SDS011;49110;52.584;13.408;2023-07-16T04:49:27;2.70;;;2.50;;
14013;SDS011;49110;52.584;13.408;2023-07-16T04:50:27;4.00;;;2.50;;
14013;SDS011;49110;52.584;13.408;2023-07-16T04:51:28;2.30;;;2.10;;
14013;SDS011;49110;52.584;13.408;2023-07-16T04:52:28;2.33;;;2.20;;
14013;SDS011;49110;52.584;13.408;2023-07-16T04:53:29;2.57;;;2.37;;
14013;SDS011;49110;52.584;13.408;2023-07-16T04:54:34;3.93;;;2.40;;
14013;SDS011;49110;52.584;13.408;2023-07-16T04:55:36;2.10;;;2.00;;
14013;SDS011;49110;52.584;13.408;2023-07-16T04:56:37;2.70;;;2.50;;
14013;SDS011;49110;52.584;13.408;2023-07-16T04:57:37;2.67;;;2.43;;
14013;SDS011;49110;52.584;13.408;2023-07-16T04:58:38;3.57;;;2.37;;
14013;SDS011;49110;52.584;13.408;2023-07-16T04:59:38;2.73;;;2.50;;
14013;SDS011;49110;52.584;13.408;2023-07-16T05:00:39;2.30;;;2.10;;
14013;SDS011;49110;52.584;13.408;2023-07-16T05:01:39;3.27;;;2.33;;
14013;SDS011;49110;52.584;13.408;2023-07-16T05:02:40;2.70;;;2.50;;
14013;SDS011;49110;52.584;13.408;2023-07-16T05:03:40;2.87;;;2.30;;
14013;SDS011;49110;52.584;13.408;2023-07-16T05:04:41;2.80;;;2.60;;
14013;SDS011;49110;52.584;13.408;2023-07-16T05:05:43;2.57;;;2.37;;
14013;SDS011;49110;52.584;13.408;2023-07-16T05:06:44;2.80;;;2.10;;
14013;SDS011;49110;52.584;13.408;2023-07-16T05:07:44;2.37;;;2.17;;
14013;SDS011;49110;52.584;13.408;2023-07-16T05:08:45;2.43;;;2.20;;
14013;SDS011;49110;52.584;13.408;2023-07-16T05:09:45;2.40;;;2.20;;
14013;SDS011;49110;52.584;13.408;2023-07-16T05:10:46;2.50;;;2.30;;
14013;SDS011;49110;52.584;13.408;2023-07-16T05:11:46;2.43;;;2.23;;
14013;SDS011;49110;52.584;13.408;2023-07-16T05:12:47;2.63;;;2.43;;
14013;SDS011;49110;52.584;13.408;2023-07-16T05:13:47;2.70;;;2.50;;
14013;SDS011;49110;52.584;13.408;2023-07-16T05:14:48;2.50;;;2.30;;
14013;SDS011;49110;52.584;13.408;2023-07-16T05:15:48;2.60;;;2.40;;
14013;SDS011;49110;52.584;13.408;2023-07-16T05:16:49;3.57;;;2.37;;
14013;SDS011;49110;52.584;13.408;2023-07-16T05:17:49;2.43;;;2.23;;
14013;SDS011;49110;52.584;13.408;2023-07-16T05:18:50;2.30;;;2.20;;
14013;SDS011;49110;52.584;13.408;2023-07-16T05:19:50;4.30;;;2.37;;
14013;SDS011;49110;52.584;13.408;2023-07-16T05:20:51;3.63;;;2.30;;
14013;SDS011;49110;52.584;13.408;2023-07-16T05:21:51;3.33;;;2.40;;
14013;SDS011;49110;52.584;13.408;2023-07-16T05:22:52;2.90;;;2.53;;
14013;SDS011;49110;52.584;13.408;2023-07-16T05:23:52;2.43;;;2.23;;
14013;SDS011;49110;52.584;13.408;2023-07-16T05:24:53;2.57;;;2.40;;
14013;SDS011;49110;52.584;13.408;2023-07-16T05:25:53;2.53;;;2.30;;
14013;SDS011;49110;52.584;13.408;2023-07-16T05:26:54;2.47;;;2.27;;
14013;SDS011;49110;52.584;13.408;2023-07-16T05:27:55;2.40;;;2.20;;
14013;SDS011;49110;52.584;13.408;2023-07-16T05:28:55;2.77;;;2.57;;
14013;SDS011;49110;52.584;13.408;2023-07-16T05:29:56;3.93;;;2.50;;
14013;SDS011;49110;52.584;13.408;2023-07-16T05:31:00;3.83;;;3.10;;
14013;SDS011;49110;52.584;13.408;2023-07-16T05:32:01;3.13;;;2.77;;
14013;SDS011;49110;52.584;13.408;2023-07-16T05:33:02;3.00;;;2.80;;
14013;SDS011;49110;52.584;13.408;2023-07-16T05:34:02;2.80;;;2.50;;
14013;SDS011;49110;52.584;13.408;2023-07-16T05:35:03;2.60;;;2.40;;
14013;SDS011;49110;52.584;13.408;2023-07-16T05:36:04;4.27;;;2.83;;
14013;SDS011;49110;52.584;13.408;2023-07-16T05:37:05;4.00;;;2.93;;
14013;SDS011;49110;52.584;13.408;2023-07-16T05:38:05;3.20;;;2.90;;
14013;SDS011;49110;52.584;13.408;2023-07-16T05:39:06;3.30;;;3.00;;
14013;SDS011;49110;52.584;13.408;2023-07-16T05:40:08;2.90;;;2.60;;
14013;SDS011;49110;52.584;13.408;2023-07-16T05:41:09;3.90;;;2.90;;
14013;SDS011;49110;52.584;13.408;2023-07-16T05:42:09;2.60;;;2.40;;
14013;SDS011;49110;52.584;13.408;2023-07-16T05:43:10;2.90;;;2.70;;
14013;SDS011;49110;52.584;13.408;2023-07-16T05:44:10;3.00;;;2.70;;
14013;SDS011;49110;52.584;13.408;2023-07-16T05:45:11;2.70;;;2.50;;
14013;SDS011;49110;52.584;13.408;2023-07-16T05:46:11;2.93;;;2.40;;
14013;SDS011;49110;52.584;13.408;2023-07-16T05:47:12;2.80;;;2.60;;
14013;SDS011;49110;52.584;13.408;2023-07-16T05:48:12;6.63;;;2.90;;
14013;SDS011;49110;52.584;13.408;2023-07-16T05:49:13;3.47;;;2.83;;
14013;SDS011;49110;52.584;13.408;2023-07-16T05:50:13;3.70;;;3.10;;
14013;SDS011;49110;52.584;13.408;2023-07-16T05:51:14;4.30;;;3.00;;
14013;SDS011;49110;52.584;13.408;2023-07-16T05:52:14;5.33;;;2.80;;
14013;SDS011;49110;52.584;13.408;2023-07-16T05:53:15;3.03;;;2.83;;
14013;SDS011;49110;52.584;13.408;2023-07-16T05:54:15;3.37;;;2.60;;
14013;SDS011;49110;52.584;13.408;2023-07-16T05:55:16;2.53;;;2.33;;
14013;SDS011;49110;52.584;13.408;2023-07-16T05:56:17;3.77;;;2.90;;
14013;SDS011;49110;52.584;13.408;2023-07-16T05:57:18;3.60;;;3.30;;
14013;SDS011;49110;52.584;13.408;2023-07-16T05:58:18;3.10;;;2.83;;
14013;SDS011;49110;52.584;13.408;2023-07-16T05:59:18;3.60;;;3.03;;
14013;SDS011;49110;52.584;13.408;2023-07-16T06:00:19;5.10;;;3.10;;
14013;SDS011;49110;52.584;13.408;2023-07-16T06:01:19;2.80;;;2.60;;
14013;SDS011;49110;52.584;13.408;2023-07-16T06:02:20;4.40;;;3.17;;
14013;SDS011;49110;52.584;13.408;2023-07-16T06:03:20;3.00;;;2.73;;
14013;SDS011;49110;52.584;13.408;2023-07-16T06:04:21;3.90;;;2.83;;
14013;SDS011;49110;52.584;13.408;2023-07-16T06:05:21;3.37;;;3.07;;
14013;SDS011;49110;52.584;13.408;2023-07-16T06:06:22;4.10;;;3.70;;
14013;SDS011;49110;52.584;13.408;2023-07-16T06:07:22;3.80;;;3.10;;
14013;SDS011;49110;52.584;13.408;2023-07-16T06:08:23;3.27;;;2.97;;